Time;durP1;ratioP1;P1;durP2;ratioP2;P2;SDS_P1;SDS_P2;PMS_P1;PMS_P2;Temp;Humidity;BMP_temperature;BMP_pressure;BME280_temperature;BME280_humidity;BME280_pressure;Samples;Min_cycle;Max_cycle;Signal;HPM_P1;HPM_P2
2023/07/21 00:01:08;;;;;;;2.00;1.80;;;15.20;99.90;;;;;;5033125;28;20212;-78
2023/07/21 00:03:35;;;;;;;2.20;1.60;;;15.30;1.00;;;;;;5024191;28;20170;-79
2023/07/21 00:06:02;;;;;;;1.80;1.70;;;15.20;1.00;;;;;;5031110;28;20668;-78
2023/07/21 00:08:30;;;;;;;1.70;1.60;;;15.10;1.00;;;;;;5044234;28;20193;-78
2023/07/21 00:11:00;;;;;;;1.60;1.50;;;15.00;1.00;;;;;;5047725;28;20778;-79
2023/07/21 00:13:26;;;;;;;2.53;2.00;;;15.00;99.90;;;;;;5053918;28;20178;-78
2023/07/21 00:15:52;;;;;;;1.80;1.70;;;14.80;1.00;;;;;;5053102;28;20220;-78
2023/07/21 00:18:19;;;;;;;1.90;1.60;;;14.80;1.00;;;;;;5035492;28;20265;-78
2023/07/21 00:20:45;;;;;;;2.23;1.60;;;14.80;99.90;;;;;;5034962;28;20197;-78
2023/07/21 00:23:10;;;;;;;1.90;1.80;;;14.70;1.00;;;;;;5035356;28;20227;-78
2023/07/21 00:25:36;;;;;;;1.70;1.60;;;14.60;1.00;;;;;;5035338;28;20570;-79
2023/07/21 00:28:02;;;;;;;1.70;1.60;;;14.60;99.90;;;;;;5034758;28;20174;-78
2023/07/21 00:30:27;;;;;;;1.90;1.80;;;14.50;99.90;;;;;;5034596;28;20174;-78
2023/07/21 00:32:53;;;;;;;2.60;1.80;;;14.60;1.00;;;;;;5035505;28;20173;-78
2023/07/21 00:35:18;;;;;;;2.20;1.83;;;14.70;1.00;;;;;;5026772;28;20625;-78
2023/07/21 00:37:44;;;;;;;1.90;1.80;;;14.70;1.00;;;;;;5035118;28;20224;-78
2023/07/21 00:40:10;;;;;;;1.80;1.70;;;14.80;99.90;;;;;;5052261;28;20712;-79
2023/07/21 00:42:38;;;;;;;2.00;1.80;;;14.70;1.00;;;;;;5053338;28;20248;-78
2023/07/21 00:45:04;;;;;;;2.43;1.80;;;14.70;1.00;;;;;;5034825;28;20190;-78
2023/07/21 00:47:30;;;;;;;2.07;1.93;;;14.70;99.90;;;;;;5052895;28;20170;-78
2023/07/21 00:49:56;;;;;;;1.80;1.70;;;14.70;77.50;;;;;;5034496;28;20178;-78
2023/07/21 00:52:26;;;;;;;2.00;1.80;;;14.70;99.90;;;;;;5034928;28;20177;-79
2023/07/21 00:54:52;;;;;;;46.80;3.80;;;14.60;1.00;;;;;;5034659;28;20197;-78
2023/07/21 00:57:20;;;;;;;1.90;1.80;;;14.70;99.90;;;;;;5052569;28;20184;-78
2023/07/21 00:59:46;;;;;;;139.70;9.43;;;14.60;1.00;;;;;;5051910;28;20227;-78
2023/07/21 01:02:12;;;;;;;29.07;12.43;;;14.60;1.00;;;;;;5052483;28;20201;-78
2023/07/21 01:04:38;;;;;;;226.47;20.80;;;14.50;1.00;;;;;;5029495;28;20571;-78
2023/07/21 01:07:06;;;;;;;2.00;1.77;;;14.60;99.90;;;;;;5016225;28;20221;-78
2023/07/21 01:09:35;;;;;;;1.70;1.60;;;14.60;99.90;;;;;;5025773;28;20269;-78
2023/07/21 01:12:02;;;;;;;2.47;2.00;;;14.60;99.90;;;;;;5052338;28;20201;-79
2023/07/21 01:14:29;;;;;;;2.07;1.87;;;14.70;99.90;;;;;;5034397;28;20189;-79
2023/07/21 01:16:56;;;;;;;1.93;1.73;;;14.80;99.90;;;;;;5052135;28;20173;-79
2023/07/21 01:19:22;;;;;;;1.60;1.50;;;14.70;1.00;;;;;;5052251;28;20205;-78
2023/07/21 01:21:57;;;;;;;1.63;1.50;;;14.70;99.90;;;;;;5033927;28;20177;-76
2023/07/21 01:24:46;;;;;;;1.50;1.40;;;14.70;99.90;;;;;;5049697;28;20200;-78
2023/07/21 01:27:13;;;;;;;1.33;1.23;;;14.70;1.00;;;;;;5026077;28;20202;-79
2023/07/21 01:29:42;;;;;;;1.50;1.40;;;14.60;73.70;;;;;;5051730;28;20181;-78
2023/07/21 01:32:10;;;;;;;1.43;1.33;;;14.60;30.70;;;;;;5052160;28;20174;-79
2023/07/21 01:34:37;;;;;;;1.37;1.20;;;14.70;36.90;;;;;;5034122;28;20221;-79
2023/07/21 01:37:04;;;;;;;1.30;1.20;;;14.60;1.00;;;;;;5034071;28;20227;-78
2023/07/21 01:39:31;;;;;;;1.70;1.47;;;14.60;99.90;;;;;;5033258;28;20202;-79
2023/07/21 01:42:00;;;;;;;1.40;1.30;;;14.60;1.00;;;;;;5051577;28;20190;-78
2023/07/21 01:44:25;;;;;;;1.40;1.30;;;14.60;1.00;;;;;;5034061;28;20625;-78
2023/07/21 01:46:52;;;;;;;1.33;1.20;;;14.60;1.00;;;;;;5052002;28;20181;-78
2023/07/21 01:49:18;;;;;;;1.30;1.10;;;14.60;1.00;;;;;;5032028;28;20224;-78
2023/07/21 01:51:46;;;;;;;1.50;1.40;;;14.60;1.00;;;;;;5025407;28;20220;-78
2023/07/21 01:54:31;;;;;;;1.20;1.10;;;14.60;93.30;;;;;;5034153;28;20177;-78
2023/07/21 01:57:03;;;;;;;1.53;1.30;;;14.60;1.00;;;;;;5051853;28;20210;-78
2023/07/21 01:59:28;;;;;;;1.40;1.30;;;14.70;1.00;;;;;;5051656;28;20747;-78
2023/07/21 02:01:57;;;;;;;1.30;1.10;;;14.70;1.00;;;;;;5045653;28;20253;-79
2023/07/21 02:04:23;;;;;;;1.70;1.20;;;14.80;99.90;;;;;;5025337;28;20292;-79
2023/07/21 02:06:50;;;;;;;1.50;1.40;;;14.70;7.80;;;;;;5033797;28;20660;-78
2023/07/21 02:09:15;;;;;;;1.27;1.17;;;14.70;99.90;;;;;;5051805;28;20257;-78
2023/07/21 02:11:45;;;;;;;1.30;1.20;;;14.70;99.90;;;;;;5051134;28;20325;-79
2023/07/21 02:14:10;;;;;;;1.67;1.27;;;14.80;1.00;;;;;;5051497;28;20170;-78
2023/07/21 02:16:37;;;;;;;1.40;1.30;;;14.80;1.00;;;;;;5033771;28;20170;-78
2023/07/21 02:19:05;;;;;;;1.30;1.10;;;14.80;75.00;;;;;;5051452;28;20312;-78
2023/07/21 02:21:31;;;;;;;1.53;1.43;;;14.80;99.90;;;;;;5033420;28;20257;-78
2023/07/21 02:23:56;;;;;;;1.63;1.23;;;14.90;99.90;;;;;;5033586;28;20264;-78
2023/07/21 02:26:22;;;;;;;1.43;1.33;;;15.00;1.00;;;;;;5033762;28;20193;-78
2023/07/21 02:28:48;;;;;;;1.63;1.50;;;14.90;1.00;;;;;;5033657;28;20178;-78
2023/07/21 02:31:13;;;;;;;1.63;1.37;;;14.90;1.00;;;;;;5033064;28;20660;-78
2023/07/21 02:33:39;;;;;;;1.37;1.20;;;14.80;1.00;;;;;;5051690;28;20648;-78
2023/07/21 02:36:05;;;;;;;1.53;1.33;;;14.70;99.90;;;;;;5051665;28;20212;-79
2023/07/21 02:38:31;;;;;;;2.27;1.30;;;14.60;1.00;;;;;;5033530;28;20289;-78
2023/07/21 02:41:02;;;;;;;1.30;1.20;;;14.60;99.90;;;;;;5047870;28;20347;-78
2023/07/21 02:43:28;;;;;;;2.90;1.13;;;14.60;12.10;;;;;;5043086;28;20174;-78
2023/07/21 02:45:54;;;;;;;1.30;1.20;;;14.50;1.00;;;;;;5033833;28;20201;-78
2023/07/21 02:48:21;;;;;;;1.50;1.40;;;14.60;1.00;;;;;;5051451;28;20172;-78
2023/07/21 02:50:51;;;;;;;1.43;1.30;;;14.60;1.00;;;;;;5033449;28;20178;-78
2023/07/21 02:53:19;;;;;;;1.57;1.47;;;14.70;99.90;;;;;;5037192;28;20174;-78
2023/07/21 02:55:46;;;;;;;1.77;1.63;;;14.90;1.00;;;;;;5037165;28;20207;-78
2023/07/21 02:58:13;;;;;;;1.40;1.30;;;14.90;99.90;;;;;;5054762;28;20276;-78
2023/07/21 03:00:40;;;;;;;1.40;1.30;;;14.90;99.90;;;;;;5054116;28;20590;-78
2023/07/21 03:03:07;;;;;;;4.40;1.90;;;15.00;99.90;;;;;;5036890;28;20174;-78
2023/07/21 03:05:33;;;;;;;1.60;1.50;;;15.00;1.00;;;;;;5036856;28;20296;-78
2023/07/21 03:08:00;;;;;;;1.97;1.70;;;14.90;1.00;;;;;;5054627;28;20622;-78
2023/07/21 03:10:25;;;;;;;2.53;1.80;;;14.80;1.00;;;;;;5054230;28;20181;-79
2023/07/21 03:12:52;;;;;;;2.10;1.67;;;14.80;99.90;;;;;;5054525;28;20260;-78
2023/07/21 03:15:17;;;;;;;2.00;1.80;;;14.70;69.30;;;;;;5036722;28;20293;-78
2023/07/21 03:17:43;;;;;;;1.90;1.70;;;14.80;99.90;;;;;;5036698;28;20284;-78
2023/07/21 03:20:12;;;;;;;1.70;1.60;;;14.80;99.90;;;;;;5053928;28;20201;-78
2023/07/21 03:22:42;;;;;;;2.00;1.80;;;14.70;1.00;;;;;;5036564;28;20671;-79
2023/07/21 03:25:09;;;;;;;3.20;1.73;;;14.70;1.00;;;;;;5036708;28;20205;-78
2023/07/21 03:27:35;;;;;;;1.43;1.33;;;14.80;99.90;;;;;;5054541;28;20223;-79
2023/07/21 03:30:01;;;;;;;1.70;1.33;;;14.80;17.30;;;;;;5053989;28;20223;-78
2023/07/21 03:32:27;;;;;;;2.47;1.70;;;14.90;58.80;;;;;;5036358;28;20322;-79
2023/07/21 03:34:55;;;;;;;2.00;1.80;;;15.00;99.90;;;;;;5036308;28;20739;-79
2023/07/21 03:37:25;;;;;;;1.97;1.77;;;14.90;1.00;;;;;;5054252;28;20260;-79
2023/07/21 03:39:50;;;;;;;1.77;1.67;;;14.90;1.00;;;;;;5054090;28;20185;-79
2023/07/21 03:42:16;;;;;;;2.40;1.90;;;14.80;1.00;;;;;;5054336;28;20177;-79
2023/07/21 03:44:46;;;;;;;2.40;2.00;;;14.80;99.90;;;;;;5054330;28;20225;-79
2023/07/21 03:47:12;;;;;;;3.17;2.00;;;14.80;99.90;;;;;;5036186;28;20265;-78
2023/07/21 03:49:38;;;;;;;2.80;2.23;;;14.80;99.90;;;;;;5035703;28;20189;-79
2023/07/21 03:52:04;;;;;;;5.43;2.27;;;14.70;99.90;;;;;;5036024;28;20253;-80
2023/07/21 03:54:30;;;;;;;2.50;2.00;;;14.60;99.90;;;;;;5054188;28;20196;-80
2023/07/21 03:56:55;;;;;;;2.50;2.10;;;14.60;99.90;;;;;;5035845;28;20191;-79
2023/07/21 03:59:21;;;;;;;2.63;2.00;;;14.50;99.90;;;;;;5035855;28;20245;-79
2023/07/21 04:01:46;;;;;;;2.93;2.30;;;14.60;99.90;;;;;;5053302;28;20170;-79
2023/07/21 04:04:12;;;;;;;2.80;2.03;;;14.70;99.90;;;;;;5047207;28;20224;-79
2023/07/21 04:06:38;;;;;;;2.20;1.97;;;14.80;99.90;;;;;;5076579;23;20221;-77
2023/07/21 04:09:04;;;;;;;3.90;2.00;;;14.80;99.90;;;;;;5042068;28;20181;-78
2023/07/21 04:11:29;;;;;;;2.57;2.23;;;14.60;99.90;;;;;;5041825;28;20248;-79
2023/07/21 04:13:59;;;;;;;2.80;2.17;;;14.50;99.90;;;;;;5059443;28;20285;-79
2023/07/21 04:16:25;;;;;;;2.60;2.37;;;14.50;99.90;;;;;;5041899;28;20196;-79
2023/07/21 04:18:51;;;;;;;3.47;2.53;;;14.40;99.90;;;;;;5040537;28;20190;-79
2023/07/21 04:21:16;;;;;;;2.80;2.60;;;14.40;99.90;;;;;;5059642;28;20557;-79
2023/07/21 04:23:42;;;;;;;3.27;2.53;;;14.50;99.90;;;;;;5042201;28;20165;-79
2023/07/21 04:26:08;;;;;;;2.70;2.40;;;14.40;99.90;;;;;;5042224;28;20207;-79
2023/07/21 04:28:34;;;;;;;4.43;2.50;;;14.40;99.90;;;;;;5041973;28;20169;-79
2023/07/21 04:30:59;;;;;;;3.60;2.47;;;14.40;99.90;;;;;;5058738;28;20277;-80
2023/07/21 04:33:25;;;;;;;2.87;2.57;;;14.40;99.90;;;;;;5059495;28;20178;-78
2023/07/21 04:35:51;;;;;;;3.13;2.80;;;14.40;99.90;;;;;;5059149;28;20194;-79
2023/07/21 04:38:16;;;;;;;2.40;2.20;;;14.40;99.90;;;;;;5059344;28;20237;-78
2023/07/21 04:40:46;;;;;;;2.90;2.53;;;14.50;99.90;;;;;;5057922;28;20197;-79
2023/07/21 04:43:12;;;;;;;2.80;2.47;;;14.60;99.90;;;;;;5058193;28;20173;-80
2023/07/21 04:45:41;;;;;;;2.97;2.40;;;14.70;99.90;;;;;;5059907;28;20212;-79
2023/07/21 04:48:07;;;;;;;4.07;2.40;;;14.70;99.90;;;;;;5056324;28;20181;-79
2023/07/21 04:50:33;;;;;;;2.67;2.40;;;14.90;99.90;;;;;;5042008;28;20208;-79
2023/07/21 04:53:01;;;;;;;3.30;2.40;;;14.90;99.90;;;;;;5059615;28;20193;-79
2023/07/21 04:55:27;;;;;;;4.03;2.67;;;14.90;99.90;;;;;;5041870;28;20349;-79
2023/07/21 04:57:53;;;;;;;7.23;3.00;;;14.80;99.90;;;;;;5058874;28;20189;-79
2023/07/21 05:00:18;;;;;;;3.40;2.60;;;14.70;99.90;;;;;;5058597;28;20197;-81
2023/07/21 05:02:44;;;;;;;3.13;2.83;;;14.60;99.90;;;;;;5041643;28;20174;-82
2023/07/21 05:05:10;;;;;;;4.70;3.20;;;14.70;99.90;;;;;;5059221;28;20212;-81
2023/07/21 05:07:36;;;;;;;3.60;3.10;;;14.70;99.90;;;;;;5041253;28;20193;-81
2023/07/21 05:10:02;;;;;;;194.53;28.43;;;14.80;99.90;;;;;;5040825;28;20223;-82
2023/07/21 05:12:27;;;;;;;205.63;16.07;;;14.80;99.90;;;;;;5041423;28;20178;-79
2023/07/21 05:14:53;;;;;;;4.03;3.53;;;15.30;99.90;;;;;;5039055;28;20642;-80
2023/07/21 05:17:19;;;;;;;2.83;2.57;;;16.00;99.90;;;;;;5060902;28;20256;-79
2023/07/21 05:19:44;;;;;;;2.77;2.43;;;16.30;99.90;;;;;;5039037;28;20198;-80
2023/07/21 05:22:11;;;;;;;2.37;2.10;;;17.00;1.00;;;;;;5055763;28;20193;-81
2023/07/21 05:24:37;;;;;;;2.60;2.40;;;17.20;1.00;;;;;;5055996;28;20173;-81
2023/07/21 05:27:02;;;;;;;2.57;1.80;;;17.80;99.90;;;;;;5055885;28;20177;-83
2023/07/21 05:29:28;;;;;;;42.93;5.47;;;17.90;1.00;;;;;;5037274;28;20183;-82
2023/07/21 05:31:54;;;;;;;3.10;2.80;;;17.70;99.90;;;;;;5037822;28;20208;-83
2023/07/21 05:34:21;;;;;;;3.20;2.90;;;17.60;99.90;;;;;;5055342;28;20177;-81
2023/07/21 05:36:47;;;;;;;3.67;3.17;;;17.10;1.00;;;;;;5038496;28;20209;-81
2023/07/21 05:39:13;;;;;;;2.67;2.47;;;17.10;1.00;;;;;;5041619;28;20205;-81
2023/07/21 05:41:38;;;;;;;2.57;2.37;;;17.00;1.00;;;;;;5037350;28;20201;-82
2023/07/21 05:44:04;;;;;;;3.23;2.93;;;17.20;1.00;;;;;;5040434;28;20172;-81
2023/07/21 05:46:30;;;;;;;54.20;5.33;;;17.30;1.00;;;;;;5058989;28;20185;-81
2023/07/21 05:48:55;;;;;;;3.60;2.30;;;17.60;99.90;;;;;;5056747;28;20260;-81
2023/07/21 05:51:22;;;;;;;2.90;2.60;;;18.10;1.00;;;;;;5039068;28;20170;-81
2023/07/21 05:53:48;;;;;;;4.53;2.63;;;18.30;99.90;;;;;;5059704;28;20169;-81
2023/07/21 05:56:13;;;;;;;2.90;2.70;;;18.20;99.90;;;;;;5038560;28;20694;-81
2023/07/21 05:58:41;;;;;;;2.83;2.53;;;18.20;1.00;;;;;;5036607;28;20610;-83
2023/07/21 06:01:10;;;;;;;3.20;2.83;;;18.20;1.00;;;;;;5038010;28;20209;-78
2023/07/21 06:03:37;;;;;;;2.03;1.63;;;18.10;99.90;;;;;;5040130;28;20180;-80
2023/07/21 06:06:04;;;;;;;3.23;2.80;;;18.10;99.90;;;;;;5058530;28;20216;-80
2023/07/21 06:08:30;;;;;;;3.23;3.00;;;18.20;1.00;;;;;;5059133;28;20253;-79
2023/07/21 06:11:00;;;;;;;2.60;2.40;;;18.40;1.00;;;;;;5057819;28;20282;-80
2023/07/21 06:13:28;;;;;;;2.93;2.63;;;18.70;1.00;;;;;;5039910;28;20182;-80
2023/07/21 06:15:54;;;;;;;38.10;3.93;;;18.80;1.00;;;;;;5039945;28;20238;-80
2023/07/21 06:18:19;;;;;;;4.40;3.30;;;19.00;99.90;;;;;;5039766;28;20228;-80
2023/07/21 06:20:45;;;;;;;4.30;2.20;;;18.80;65.20;;;;;;5056731;28;20205;-81
2023/07/21 06:23:10;;;;;;;5.97;3.50;;;18.90;1.00;;;;;;5039472;28;20630;-81
2023/07/21 06:25:36;;;;;;;4.77;3.13;;;18.50;99.90;;;;;;5041191;28;20240;-82
2023/07/21 06:28:02;;;;;;;3.47;2.60;;;17.90;1.00;;;;;;5035916;28;20196;-81
2023/07/21 06:30:27;;;;;;;2.63;2.27;;;17.50;1.00;;;;;;5068783;28;20181;-81
2023/07/21 06:32:53;;;;;;;3.87;2.23;;;17.20;1.00;;;;;;5043662;28;20170;-80
2023/07/21 06:35:18;;;;;;;2.40;2.20;;;17.10;1.00;;;;;;5062534;28;20235;-81
2023/07/21 06:37:44;;;;;;;2.43;2.00;;;17.50;1.00;;;;;;5044627;28;20178;-82
2023/07/21 06:40:10;;;;;;;3.80;2.30;;;17.10;1.00;;;;;;5062126;28;20284;-81
2023/07/21 06:42:36;;;;;;;3.00;2.67;;;17.00;1.00;;;;;;5059326;28;20208;-81
2023/07/21 06:45:02;;;;;;;3.43;1.60;;;17.20;1.00;;;;;;5043349;28;20625;-81
2023/07/21 06:47:28;;;;;;;1.83;1.60;;;17.60;1.00;;;;;;5061322;28;20178;-81
2023/07/21 06:49:54;;;;;;;3.77;1.90;;;18.10;99.90;;;;;;5061246;28;20706;-81
2023/07/21 06:52:19;;;;;;;2.20;1.67;;;18.00;99.90;;;;;;5043780;28;20174;-81
2023/07/21 06:54:45;;;;;;;2.53;1.87;;;17.50;1.00;;;;;;5043544;28;20173;-82
2023/07/21 06:57:10;;;;;;;5.37;2.17;;;17.30;3.80;;;;;;5043589;28;20184;-81
2023/07/21 06:59:37;;;;;;;3.13;2.10;;;17.70;1.00;;;;;;5060629;28;20210;-78
2023/07/21 07:02:02;;;;;;;2.27;1.90;;;17.80;1.00;;;;;;5042696;28;20209;-81
2023/07/21 07:04:28;;;;;;;2.87;2.40;;;17.70;1.00;;;;;;5062303;28;20177;-81
2023/07/21 07:06:55;;;;;;;2.87;2.23;;;18.00;99.90;;;;;;5061403;28;20301;-81
2023/07/21 07:09:22;;;;;;;2.87;1.90;;;18.20;94.40;;;;;;5061747;28;20235;-81
2023/07/21 07:11:48;;;;;;;4.10;2.37;;;18.30;99.90;;;;;;5042645;28;20173;-81
2023/07/21 07:14:14;;;;;;;7.27;2.53;;;18.40;1.00;;;;;;5061420;28;20524;-82
2023/07/21 07:16:39;;;;;;;6.33;3.00;;;18.60;1.00;;;;;;5042538;28;20196;-82
2023/07/21 07:19:06;;;;;;;4.13;3.00;;;18.60;99.90;;;;;;5042229;28;20172;-81
2023/07/21 07:21:32;;;;;;;4.73;2.93;;;18.70;99.90;;;;;;5060090;28;20185;-82
2023/07/21 07:23:58;;;;;;;2.40;1.90;;;19.10;99.90;;;;;;5042379;28;20169;-81
2023/07/21 07:26:23;;;;;;;3.53;2.20;;;18.90;99.90;;;;;;5061432;28;20523;-81
2023/07/21 07:28:49;;;;;;;3.60;2.03;;;18.60;99.90;;;;;;5061177;28;20174;-81
2023/07/21 07:31:14;;;;;;;3.73;2.33;;;18.60;1.00;;;;;;5040585;28;20178;-80
2023/07/21 07:33:40;;;;;;;3.30;2.20;;;18.70;1.00;;;;;;5059195;28;20174;-80
2023/07/21 07:36:06;;;;;;;3.13;2.57;;;18.90;99.90;;;;;;5058457;28;20202;-84
2023/07/21 07:38:32;;;;;;;2.43;2.23;;;18.70;99.90;;;;;;5041554;28;20569;-81
2023/07/21 07:41:05;;;;;;;2.33;2.07;;;19.00;1.00;;;;;;5058372;28;20209;-80
2023/07/21 07:43:32;;;;;;;2.90;2.10;;;19.30;99.90;;;;;;5057719;28;20196;-80
2023/07/21 07:45:58;;;;;;;3.10;2.10;;;19.60;1.00;;;;;;5058861;28;20611;-80
2023/07/21 07:48:24;;;;;;;2.60;2.20;;;19.70;6.30;;;;;;5059568;28;20177;-80
2023/07/21 07:50:53;;;;;;;3.63;2.30;;;19.70;99.90;;;;;;5058916;28;20533;-80
2023/07/21 07:53:19;;;;;;;3.58;2.53;;;19.90;99.90;;;;;;5059092;28;20224;-81
2023/07/21 07:55:44;;;;;;;1.27;1.15;;;20.00;99.90;;;;;;5058006;28;20193;-80
2023/07/21 07:58:10;;;;;;;1.33;1.23;;;20.00;1.00;;;;;;5058010;28;20209;-80
2023/07/21 08:00:38;;;;;;;1.30;1.00;;;19.60;99.90;;;;;;5057207;28;20243;-81
2023/07/21 08:03:05;;;;;;;1.27;1.17;;;19.70;99.90;;;;;;5058758;28;20165;-80
2023/07/21 08:05:39;;;;;;;1.48;1.38;;;19.20;1.00;;;;;;5058622;28;20213;-81
2023/07/21 08:08:07;;;;;;;1.27;1.17;;;19.00;99.90;;;;;;5059595;28;20170;-80
2023/07/21 08:10:33;;;;;;;1.50;1.20;;;18.80;1.00;;;;;;5057937;28;20182;-81
2023/07/21 08:13:02;;;;;;;2.13;1.93;;;18.80;32.40;;;;;;5040819;28;20542;-81
2023/07/21 08:15:28;;;;;;;3.10;2.22;;;18.90;74.10;;;;;;5040928;28;20236;-80
2023/07/21 08:17:54;;;;;;;2.28;1.90;;;18.90;1.00;;;;;;5038138;28;20190;-80
2023/07/21 08:20:20;;;;;;;2.03;1.83;;;18.90;99.90;;;;;;5035984;28;20228;-80
2023/07/21 08:22:47;;;;;;;1.70;1.50;;;18.90;99.90;;;;;;5058957;28;20365;-80
2023/07/21 08:25:13;;;;;;;2.07;1.60;;;18.90;99.90;;;;;;5060381;28;20208;-82
2023/07/21 08:27:38;;;;;;;2.13;1.70;;;18.80;1.00;;;;;;5061116;28;20231;-82
2023/07/21 08:30:05;;;;;;;1.90;1.60;;;18.80;99.90;;;;;;5061079;28;20189;-82
2023/07/21 08:32:31;;;;;;;2.80;1.70;;;19.00;1.00;;;;;;5046602;28;20182;-83
2023/07/21 08:34:56;;;;;;;1.40;1.30;;;19.10;99.90;;;;;;5057090;28;20198;-83
2023/07/21 08:37:22;;;;;;;2.17;1.57;;;19.10;99.90;;;;;;5060009;28;20197;-83
2023/07/21 08:39:48;;;;;;;1.73;1.50;;;19.10;1.00;;;;;;5042045;28;20228;-83
2023/07/21 08:42:14;;;;;;;1.83;1.60;;;19.20;1.00;;;;;;5060980;28;20185;-83
2023/07/21 08:44:41;;;;;;;1.30;1.20;;;19.20;99.90;;;;;;5060215;28;20193;-84
2023/07/21 08:47:07;;;;;;;1.37;1.20;;;19.10;99.90;;;;;;5056385;28;20651;-85
2023/07/21 08:49:33;;;;;;;1.47;1.33;;;19.20;1.00;;;;;;5036639;28;20188;-85
2023/07/21 08:51:59;;;;;;;1.73;1.20;;;19.40;1.00;;;;;;5054447;28;20177;-84
2023/07/21 08:54:25;;;;;;;1.60;1.50;;;19.60;1.00;;;;;;5036593;28;20174;-84
2023/07/21 08:56:51;;;;;;;2.53;1.87;;;19.70;1.00;;;;;;5055020;28;20208;-84
2023/07/21 08:59:20;;;;;;;1.93;1.70;;;19.60;1.00;;;;;;5046696;28;20185;-84
2023/07/21 09:01:45;;;;;;;2.10;1.77;;;19.50;1.00;;;;;;5040264;28;20197;-85
2023/07/21 09:04:25;;;;;;;1.75;1.60;;;19.60;1.00;;;;;;5040695;28;20182;-84
2023/07/21 09:06:53;;;;;;;1.50;1.40;;;19.80;99.90;;;;;;5058568;28;20258;-85
2023/07/21 09:09:23;;;;;;;2.05;1.70;;;19.90;99.90;;;;;;5040928;28;20174;-85
2023/07/21 09:11:49;;;;;;;1.67;1.55;;;19.90;99.80;;;;;;5058841;28;20202;-85
2023/07/21 09:14:16;;;;;;;2.53;1.92;;;20.00;1.00;;;;;;5040752;28;20560;-84
2023/07/21 09:16:43;;;;;;;2.53;2.13;;;19.90;99.90;;;;;;5040372;28;20262;-84
2023/07/21 09:19:10;;;;;;;2.40;2.20;;;19.80;1.00;;;;;;5056698;28;20208;-82
2023/07/21 09:21:36;;;;;;;3.67;2.38;;;20.00;99.90;;;;;;5037299;28;20209;-82
2023/07/21 09:24:06;;;;;;;2.38;2.10;;;20.00;1.00;;;;;;5038478;28;20174;-81
2023/07/21 09:26:32;;;;;;;2.78;2.38;;;20.20;99.90;;;;;;5037804;28;20190;-82
2023/07/21 09:28:58;;;;;;;2.50;2.17;;;20.20;1.00;;;;;;5055519;28;20177;-83
2023/07/21 09:31:34;;;;;;;3.40;2.17;;;20.10;1.00;;;;;;5037237;28;20180;-84
2023/07/21 09:34:08;;;;;;;2.55;1.80;;;20.20;99.90;;;;;;5055295;28;20189;-82
2023/07/21 09:36:34;;;;;;;3.47;2.22;;;20.20;1.00;;;;;;5055304;28;20280;-85
2023/07/21 09:39:04;;;;;;;2.85;2.53;;;20.20;1.00;;;;;;5036506;28;20219;-83
2023/07/21 09:41:34;;;;;;;19.25;9.73;;;20.30;99.90;;;;;;5035377;28;20301;-85
2023/07/21 09:44:00;;;;;;;6.25;2.47;;;20.50;99.90;;;;;;5036059;28;20555;-83
2023/07/21 09:46:26;;;;;;;2.60;1.80;;;20.60;10.50;;;;;;5053887;28;20189;-84
2023/07/21 09:48:53;;;;;;;3.33;1.90;;;20.50;99.90;;;;;;5037214;28;20169;-83
2023/07/21 09:51:20;;;;;;;1.90;1.60;;;20.10;99.90;;;;;;5038043;28;20185;-83
2023/07/21 09:53:48;;;;;;;4.35;2.10;;;20.00;42.30;;;;;;5038426;28;20173;-83
2023/07/21 09:56:16;;;;;;;10.70;5.38;;;19.90;1.00;;;;;;5038049;28;20189;-84
2023/07/21 09:58:53;;;;;;;4.30;2.60;;;20.00;1.00;;;;;;5038138;28;20667;-82
2023/07/21 10:01:19;;;;;;;2.92;1.67;;;19.90;1.00;;;;;;5038852;28;20193;-82
2023/07/21 10:03:45;;;;;;;2.15;1.73;;;20.00;99.90;;;;;;5043123;28;20227;-82
2023/07/21 10:06:12;;;;;;;2.58;1.83;;;19.90;99.90;;;;;;5062167;23;20224;-78
2023/07/21 10:08:38;;;;;;;1.55;1.45;;;19.60;1.00;;;;;;5055835;28;20174;-77
2023/07/21 10:11:07;;;;;;;3.28;2.00;;;19.60;28.60;;;;;;5055270;28;20227;-78
2023/07/21 10:13:33;;;;;;;2.60;2.00;;;19.40;99.90;;;;;;5037848;28;20264;-78
2023/07/21 10:16:01;;;;;;;2.35;2.00;;;19.40;1.00;;;;;;5037842;28;20197;-78
2023/07/21 10:18:27;;;;;;;2.30;2.10;;;19.40;1.00;;;;;;5055589;28;20588;-76
2023/07/21 10:20:55;;;;;;;2.13;1.92;;;19.40;99.90;;;;;;5037269;28;20201;-78
2023/07/21 10:23:38;;;;;;;3.53;2.20;;;19.50;1.00;;;;;;5055722;28;20265;-79
2023/07/21 10:26:05;;;;;;;2.40;2.10;;;19.50;99.90;;;;;;5038085;28;20197;-79
2023/07/21 10:28:36;;;;;;;3.80;2.73;;;19.40;1.00;;;;;;5056565;28;20192;-78
2023/07/21 10:31:21;;;;;;;2.10;1.90;;;19.70;99.90;;;;;;5055124;28;20231;-77
2023/07/21 10:34:11;;;;;;;2.75;2.20;;;19.80;99.90;;;;;;5055586;28;20180;-79
2023/07/21 10:36:47;;;;;;;2.85;2.47;;;19.90;99.90;;;;;;5055694;28;20208;-80
2023/07/21 10:39:20;;;;;;;3.22;2.47;;;19.90;99.90;;;;;;5038108;28;20559;-80
2023/07/21 10:41:50;;;;;;;2.75;2.25;;;20.00;99.90;;;;;;5037293;28;20308;-78
2023/07/21 10:44:17;;;;;;;2.55;2.30;;;20.20;99.90;;;;;;5037306;28;20197;-78
2023/07/21 10:46:44;;;;;;;2.53;2.05;;;20.50;99.90;;;;;;5036999;28;20208;-76
2023/07/21 10:49:14;;;;;;;2.55;2.13;;;20.90;99.90;;;;;;5055128;28;20544;-80
2023/07/21 10:51:42;;;;;;;3.40;1.95;;;21.00;99.90;;;;;;5055198;28;20166;-78
2023/07/21 10:54:09;;;;;;;2.53;2.00;;;21.00;1.00;;;;;;5037382;28;20216;-77
2023/07/21 10:56:46;;;;;;;2.30;2.10;;;20.90;99.90;;;;;;5055161;28;20225;-77
2023/07/21 10:59:13;;;;;;;3.35;2.35;;;21.10;99.90;;;;;;5055000;28;20182;-77
2023/07/21 11:01:45;;;;;;;2.72;2.30;;;21.00;1.00;;;;;;5036390;28;20205;-77
2023/07/21 11:04:13;;;;;;;2.72;2.10;;;20.90;1.00;;;;;;5036899;28;20173;-77
2023/07/21 11:06:43;;;;;;;2.35;1.92;;;20.80;99.90;;;;;;5054629;28;20197;-77
2023/07/21 11:09:12;;;;;;;1.95;1.65;;;20.90;1.00;;;;;;5054847;28;20259;-77
2023/07/21 11:11:43;;;;;;;2.05;1.90;;;21.10;1.00;;;;;;5036072;28;20173;-77
2023/07/21 11:14:13;;;;;;;2.10;1.90;;;21.30;99.90;;;;;;5054543;28;20268;-77
2023/07/21 11:16:55;;;;;;;2.20;1.80;;;21.20;99.90;;;;;;5054867;28;20259;-77
2023/07/21 11:19:23;;;;;;;2.75;2.55;;;21.30;99.90;;;;;;5054491;28;20204;-77
2023/07/21 11:21:49;;;;;;;2.83;2.60;;;21.10;1.00;;;;;;5036320;28;20223;-77
2023/07/21 11:24:17;;;;;;;3.35;2.47;;;20.80;1.00;;;;;;5054408;28;20220;-77
2023/07/21 11:26:44;;;;;;;2.20;2.00;;;20.80;49.50;;;;;;5036805;28;20288;-77
2023/07/21 11:29:09;;;;;;;2.65;2.10;;;20.70;99.20;;;;;;5054439;28;20166;-77
2023/07/21 11:31:37;;;;;;;2.17;1.98;;;20.60;1.00;;;;;;5054067;28;20180;-77
2023/07/21 11:34:03;;;;;;;2.72;2.00;;;20.60;9.50;;;;;;5036428;28;20226;-77
2023/07/21 11:36:33;;;;;;;2.75;1.77;;;20.50;4.30;;;;;;5054113;28;20190;-77
2023/07/21 11:39:02;;;;;;;2.03;1.80;;;20.50;99.90;;;;;;5033979;28;20181;-78
2023/07/21 11:41:40;;;;;;;2.20;2.00;;;20.50;1.00;;;;;;5047931;28;20201;-77
2023/07/21 11:44:10;;;;;;;1.42;1.33;;;20.50;1.00;;;;;;5028083;28;20212;-77
2023/07/21 11:46:37;;;;;;;2.00;1.63;;;20.50;1.00;;;;;;5053814;28;20200;-78
2023/07/21 11:49:10;;;;;;;1.80;1.50;;;20.50;1.00;;;;;;5036308;28;20176;-78
2023/07/21 11:51:48;;;;;;;2.72;1.60;;;20.80;1.00;;;;;;5041623;28;20174;-77
2023/07/21 11:54:22;;;;;;;1.98;1.83;;;21.10;1.00;;;;;;5033949;28;20664;-77
2023/07/21 11:56:48;;;;;;;2.70;1.90;;;21.30;1.00;;;;;;5016064;28;20194;-77
2023/07/21 11:59:13;;;;;;;1.55;1.40;;;21.30;99.90;;;;;;5033757;28;20257;-77
2023/07/21 12:01:39;;;;;;;2.25;1.63;;;21.40;99.90;;;;;;5033247;28;20280;-77
2023/07/21 12:04:05;;;;;;;1.52;1.40;;;21.50;99.90;;;;;;5048564;28;20181;-78
2023/07/21 12:06:31;;;;;;;1.58;1.48;;;21.60;99.90;;;;;;5050586;28;20240;-78
2023/07/21 12:08:56;;;;;;;3.38;1.83;;;21.80;99.90;;;;;;5016048;28;20198;-78
2023/07/21 12:11:22;;;;;;;2.35;1.60;;;21.70;99.90;;;;;;5015717;28;20609;-79
2023/07/21 12:13:47;;;;;;;1.63;1.50;;;21.60;82.50;;;;;;5015968;28;20171;-78
2023/07/21 12:16:13;;;;;;;2.67;1.55;;;21.40;21.10;;;;;;5016212;28;20194;-78
2023/07/21 12:18:40;;;;;;;2.50;1.77;;;21.30;99.90;;;;;;5015883;28;20235;-78
2023/07/21 12:21:08;;;;;;;1.85;1.67;;;21.20;29.50;;;;;;5032867;28;20639;-78
2023/07/21 12:23:34;;;;;;;2.38;1.60;;;21.10;1.00;;;;;;5032922;28;20652;-78
2023/07/21 12:26:00;;;;;;;1.65;1.40;;;21.20;1.00;;;;;;5015817;28;20281;-78
2023/07/21 12:28:26;;;;;;;1.90;1.60;;;21.10;1.00;;;;;;5033472;28;20179;-78
2023/07/21 12:30:52;;;;;;;2.22;1.15;;;21.00;1.00;;;;;;5015263;28;20189;-78
2023/07/21 12:33:17;;;;;;;1.42;1.30;;;20.90;99.90;;;;;;5015926;28;20174;-78
2023/07/21 12:35:44;;;;;;;1.55;1.13;;;20.70;58.70;;;;;;5033308;28;20189;-77
2023/07/21 12:38:10;;;;;;;1.17;1.08;;;20.80;43.40;;;;;;5033346;28;20220;-78
2023/07/21 12:40:35;;;;;;;1.48;1.30;;;20.70;91.40;;;;;;5044075;28;20193;-78
2023/07/21 12:43:01;;;;;;;1.50;1.40;;;20.70;1.00;;;;;;5035419;28;20170;-78
2023/07/21 12:45:26;;;;;;;2.00;1.50;;;20.60;43.80;;;;;;5035421;28;20669;-78
2023/07/21 12:47:52;;;;;;;1.30;1.20;;;20.60;99.90;;;;;;5035436;28;20161;-78
2023/07/21 12:50:18;;;;;;;2.25;1.48;;;20.50;99.90;;;;;;5052688;28;20170;-78